createdAt,value
2022-10-15T00:02:46.177Z,97576.44
2022-10-15T00:05:47.690Z,97575.94
2022-10-15T00:08:49.250Z,97580.72
2022-10-15T00:11:51.343Z,97576.00
2022-10-15T00:14:52.925Z,97574.38
2022-10-15T00:17:54.429Z,97562.34
2022-10-15T00:20:56.010Z,97561.19
2022-10-15T00:23:57.596Z,97547.88
2022-10-15T00:26:59.127Z,97542.66
2022-10-15T00:30:00.711Z,97526.00
2022-10-15T00:33:02.213Z,97528.31
2022-10-15T00:36:05.432Z,97538.75
2022-10-15T00:39:07.257Z,97529.78
2022-10-15T00:42:10.008Z,97513.97
2022-10-15T00:45:12.194Z,97520.47
2022-10-15T00:48:13.738Z,97523.63
2022-10-15T00:51:15.625Z,97512.19
2022-10-15T00:54:17.208Z,97514.75
2022-10-15T00:57:18.721Z,97500.19
2022-10-15T01:00:20.436Z,97492.22
2022-10-15T01:03:22.219Z,97490.69
2022-10-15T01:06:24.533Z,97477.63
2022-10-15T01:09:26.389Z,97468.69
2022-10-15T01:12:31.529Z,97463.38
2022-10-15T01:15:39.273Z,97452.50
2022-10-15T01:18:42.499Z,97446.50
2022-10-15T01:22:04.381Z,97445.91
2022-10-15T01:25:06.107Z,97444.75
2022-10-15T01:28:22.906Z,97432.22
2022-10-15T01:31:24.465Z,97432.41
2022-10-15T01:34:47.848Z,97418.69
2022-10-15T01:37:50.330Z,97423.00
2022-10-15T01:40:51.804Z,97409.91
2022-10-15T01:43:53.548Z,97401.94
2022-10-15T01:47:23.049Z,97398.59
2022-10-15T01:50:25.920Z,97392.47
2022-10-15T01:53:27.802Z,97383.06
2022-10-15T01:56:29.453Z,97375.78
2022-10-15T01:59:31.623Z,97377.13
2022-10-15T02:02:33.152Z,97367.84
2022-10-15T02:05:44.137Z,97355.84
2022-10-15T02:08:49.082Z,97355.56
2022-10-15T02:12:01.472Z,97360.13
2022-10-15T02:15:06.532Z,97349.84
2022-10-15T02:18:26.766Z,97345.03
2022-10-15T02:21:32.725Z,97334.53
2022-10-15T02:24:55.592Z,97322.88
2022-10-15T02:27:58.412Z,97316.53
2022-10-15T02:31:02.120Z,97312.09
2022-10-15T02:34:06.008Z,97306.31
2022-10-15T02:37:07.653Z,97310.75
2022-10-15T02:40:09.526Z,97293.44
2022-10-15T02:43:12.184Z,97285.88
2022-10-15T02:46:13.702Z,97270.34
2022-10-15T02:49:17.889Z,97265.44
2022-10-15T02:52:19.694Z,97260.94
2022-10-15T02:55:21.472Z,97246.75
2022-10-15T02:58:23.593Z,97254.47
2022-10-15T03:01:26.119Z,97249.19
2022-10-15T03:04:28.117Z,97237.28
2022-10-15T03:07:30.037Z,97224.41
2022-10-15T03:10:31.844Z,97214.91
2022-10-15T03:13:38.241Z,97205.31
2022-10-15T03:16:40.302Z,97188.69
2022-10-15T03:19:42.113Z,97179.09
2022-10-15T03:22:43.742Z,97161.78
2022-10-15T03:25:45.306Z,97149.03
2022-10-15T03:28:56.244Z,97146.81
2022-10-15T03:32:10.056Z,97137.41
2022-10-15T03:35:11.610Z,97134.75
2022-10-15T03:38:13.316Z,97126.31
2022-10-15T03:41:15.102Z,97116.53
2022-10-15T03:44:17.889Z,97103.38
2022-10-15T03:47:28.149Z,97097.22
2022-10-15T03:50:31.453Z,97101.16
2022-10-15T03:53:36.644Z,97100.38
2022-10-15T03:56:38.242Z,97104.88
2022-10-15T03:59:55.268Z,97104.00
2022-10-15T04:02:59.457Z,97100.75
2022-10-15T04:06:03.534Z,97090.09
2022-10-15T04:09:05.925Z,97091.06
2022-10-15T04:12:07.635Z,97087.03
2022-10-15T04:15:09.523Z,97087.22
2022-10-15T04:18:16.833Z,97074.50
2022-10-15T04:21:19.605Z,97064.56
2022-10-15T04:24:26.189Z,97053.88
2022-10-15T04:27:27.988Z,97058.91
2022-10-15T04:30:38.941Z,97062.00
2022-10-15T04:33:43.633Z,97062.78
2022-10-15T04:36:45.245Z,97064.25
2022-10-15T04:39:50.170Z,97049.34
2022-10-15T04:42:52.485Z,97030.19
2022-10-15T04:46:00.260Z,97015.91
2022-10-15T04:49:02.565Z,97005.00
2022-10-15T04:52:04.200Z,97006.28
2022-10-15T04:55:15.469Z,96983.41
2022-10-15T04:58:17.030Z,96990.75
2022-10-15T05:01:19.455Z,96976.59
2022-10-15T05:04:35.327Z,96961.50
2022-10-15T05:07:37.291Z,96964.34
2022-10-15T05:10:38.892Z,96973.25
2022-10-15T05:13:43.006Z,96970.00
2022-10-15T05:16:45.127Z,96961.47
2022-10-15T05:19:47.282Z,96955.38
2022-10-15T05:22:53.184Z,96945.75
2022-10-15T05:25:55.830Z,96938.59
2022-10-15T05:29:00.469Z,96924.25
2022-10-15T05:32:05.506Z,96921.00
2022-10-15T05:35:07.258Z,96928.34
2022-10-15T05:38:22.473Z,96930.69
2022-10-15T05:41:24.260Z,96930.88
2022-10-15T05:44:25.892Z,96905.47
2022-10-15T05:47:27.466Z,96900.31
2022-10-15T05:50:46.412Z,96875.41
2022-10-15T05:53:57.062Z,96881.16
2022-10-15T05:56:58.946Z,96873.69
2022-10-15T06:00:00.441Z,96873.06
2022-10-15T06:03:01.907Z,96864.50
2022-10-15T06:06:03.489Z,96871.38
2022-10-15T06:09:10.383Z,96867.34
2022-10-15T06:12:11.865Z,96845.03
2022-10-15T06:15:13.462Z,96817.75
2022-10-15T06:18:16.274Z,96825.09
2022-10-15T06:21:17.806Z,96830.84
2022-10-15T06:24:19.284Z,96842.56
2022-10-15T06:27:20.926Z,96837.25
2022-10-15T06:30:22.523Z,96812.31
2022-10-15T06:33:24.013Z,96820.41
2022-10-15T06:36:25.948Z,96823.06
2022-10-15T06:39:27.463Z,96817.94
2022-10-15T06:42:28.952Z,96822.16
2022-10-15T06:45:30.513Z,96824.19
2022-10-15T06:48:32.807Z,96820.94
2022-10-15T06:51:34.445Z,96823.41
2022-10-15T06:54:35.946Z,96824.97
2022-10-15T06:57:38.960Z,96812.97
2022-10-15T07:00:40.470Z,96814.09
2022-10-15T07:03:42.074Z,96830.75
2022-10-15T07:06:43.865Z,96823.44
2022-10-15T07:09:46.823Z,96815.03
2022-10-15T07:12:48.508Z,96834.53
2022-10-15T07:15:53.928Z,96830.44
2022-10-15T07:18:55.534Z,96827.81
2022-10-15T07:21:57.077Z,96795.97
2022-10-15T07:24:58.652Z,96744.97
2022-10-15T07:28:00.215Z,96772.91
2022-10-15T07:31:02.235Z,96782.88
2022-10-15T07:34:03.752Z,96806.31
2022-10-15T07:37:05.339Z,96783.66
2022-10-15T07:40:07.156Z,96780.72
2022-10-15T07:43:08.942Z,96770.88
2022-10-15T07:46:11.648Z,96774.78
2022-10-15T07:49:13.204Z,96773.34
2022-10-15T07:52:14.724Z,96773.34
2022-10-15T07:55:16.289Z,96776.50
2022-10-15T07:58:22.848Z,96771.19
2022-10-15T08:01:24.596Z,96775.84
2022-10-15T08:04:26.161Z,96779.16
2022-10-15T08:07:27.722Z,96794.28
2022-10-15T08:10:29.320Z,96791.47
2022-10-15T08:13:30.874Z,96787.41
2022-10-15T08:16:32.411Z,96781.44
2022-10-15T08:19:34.012Z,96786.44
2022-10-15T08:22:35.545Z,96791.56
2022-10-15T08:25:37.057Z,96800.00
2022-10-15T08:28:38.619Z,96793.59
2022-10-15T08:31:40.344Z,96788.13
2022-10-15T08:34:41.879Z,96792.16
2022-10-15T08:37:43.433Z,96791.69
2022-10-15T08:41:03.028Z,96783.06
2022-10-15T08:44:04.836Z,96783.38
2022-10-15T08:47:07.658Z,96773.03
2022-10-15T08:50:32.551Z,96775.59
2022-10-15T08:53:45.792Z,96780.91
2022-10-15T08:56:47.704Z,96775.88
2022-10-15T08:59:58.699Z,96788.75
2022-10-15T09:03:18.630Z,96796.53
2022-10-15T09:06:24.225Z,96805.69
2022-10-15T09:09:39.742Z,96812.97
2022-10-15T09:12:53.781Z,96815.63
2022-10-15T09:16:05.740Z,96827.69
2022-10-15T09:19:12.493Z,96834.72
2022-10-15T09:22:15.474Z,96826.97
2022-10-15T09:25:21.402Z,96806.91
2022-10-15T09:28:25.796Z,96835.81
2022-10-15T09:31:29.876Z,96839.28
2022-10-15T09:34:34.812Z,96825.41
2022-10-15T09:37:39.176Z,96836.69
2022-10-15T09:40:40.700Z,96840.47
2022-10-15T09:43:43.269Z,96826.97
2022-10-15T09:46:45.502Z,96838.06
2022-10-15T09:49:47.460Z,96851.81
2022-10-15T09:52:56.297Z,96859.53
2022-10-15T09:56:08.321Z,96832.06
2022-10-15T09:59:17.794Z,96869.75
2022-10-15T10:02:19.864Z,96867.72
2022-10-15T10:05:31.956Z,96868.41
2022-10-15T10:08:59.741Z,96883.22
2022-10-15T10:12:02.361Z,96882.88
2022-10-15T10:15:05.509Z,96876.78
2022-10-15T10:18:09.931Z,96876.84
2022-10-15T10:21:22.781Z,96894.50
2022-10-15T10:24:28.429Z,96900.91
2022-10-15T10:27:30.133Z,96882.84
2022-10-15T10:30:57.871Z,96889.28
2022-10-15T10:34:02.557Z,96887.25
2022-10-15T10:37:05.080Z,96903.56
2022-10-15T10:40:07.199Z,96912.25
2022-10-15T10:43:18.790Z,96936.28
2022-10-15T10:46:22.406Z,96921.94
2022-10-15T10:49:30.445Z,96911.66
2022-10-15T10:52:32.952Z,96916.06
2022-10-15T10:55:37.761Z,96912.88
2022-10-15T10:58:39.281Z,96914.22
2022-10-15T11:01:40.821Z,96923.53
2022-10-15T11:04:42.361Z,96925.00
2022-10-15T11:07:43.910Z,96934.13
2022-10-15T11:11:04.254Z,96931.63
2022-10-15T11:14:17.803Z,96937.34
2022-10-15T11:17:37.838Z,96940.69
2022-10-15T11:20:59.715Z,96932.63
2022-10-15T11:24:15.352Z,96948.63
2022-10-15T11:27:28.436Z,96939.09
2022-10-15T11:30:32.346Z,96925.09
2022-10-15T11:33:49.236Z,96931.00
2022-10-15T11:37:04.107Z,96936.03
2022-10-15T11:40:19.423Z,96956.41
2022-10-15T11:43:34.730Z,96938.72
2022-10-15T11:46:36.227Z,96918.25
2022-10-15T11:49:38.084Z,96933.88
2022-10-15T11:52:45.472Z,96940.13
2022-10-15T11:55:50.738Z,96945.25
2022-10-15T11:59:04.912Z,96939.78
2022-10-15T12:02:15.748Z,96951.78
2022-10-15T12:05:18.331Z,96936.88
2022-10-15T12:08:20.041Z,96933.78
2022-10-15T12:11:27.368Z,96933.59
2022-10-15T12:14:31.888Z,96940.59
2022-10-15T12:17:46.124Z,96929.53
2022-10-15T12:20:47.722Z,96926.19
2022-10-15T12:23:49.194Z,96904.88
2022-10-15T12:26:50.714Z,96897.63
2022-10-15T12:30:05.206Z,96892.31
2022-10-15T12:33:22.245Z,96885.63
2022-10-15T12:36:28.169Z,96883.91
2022-10-15T12:42:51.906Z,96875.88
2022-10-15T12:45:55.432Z,96863.22
2022-10-15T12:48:58.255Z,96878.09
2022-10-15T12:52:00.117Z,96867.81
2022-10-15T12:55:19.823Z,96879.56
2022-10-15T12:58:37.528Z,96870.44
2022-10-15T13:01:42.349Z,96867.75
2022-10-15T13:04:43.981Z,96859.72
2022-10-15T13:07:45.502Z,96879.91
2022-10-15T13:10:48.763Z,96875.75
2022-10-15T13:13:51.351Z,96849.25
2022-10-15T13:16:52.926Z,96849.72
2022-10-15T13:20:08.143Z,96847.38
2022-10-15T13:23:30.159Z,96836.56
2022-10-15T13:26:32.541Z,96832.09
2022-10-15T13:29:34.419Z,96840.53
2022-10-15T13:32:37.171Z,96853.34
2022-10-15T13:35:38.713Z,96868.28
2022-10-15T13:38:45.197Z,96871.72
2022-10-15T13:41:48.720Z,96864.63
2022-10-15T13:45:01.238Z,96895.88
2022-10-15T13:48:03.369Z,96891.09
2022-10-15T13:51:05.277Z,96866.28
2022-10-15T13:54:16.853Z,96860.53
2022-10-15T13:57:18.480Z,96862.31
2022-10-15T14:00:21.500Z,96882.19
2022-10-15T14:03:30.813Z,96857.47
2022-10-15T14:06:33.555Z,96897.56
2022-10-15T14:09:36.142Z,96895.59
2022-10-15T14:12:37.700Z,96880.03
2022-10-15T14:15:48.266Z,96860.06
2022-10-15T14:18:51.030Z,96864.66
2022-10-15T14:21:52.981Z,96868.72
2022-10-15T14:24:54.888Z,96899.63
2022-10-15T14:27:56.514Z,96892.13
2022-10-15T14:30:58.263Z,96874.19
2022-10-15T14:33:59.885Z,96866.50
2022-10-15T14:37:01.983Z,96868.09
2022-10-15T14:40:05.483Z,96871.03
2022-10-15T14:43:13.560Z,96861.22
2022-10-15T14:46:18.178Z,96864.66
2022-10-15T14:49:23.866Z,96862.16
2022-10-15T14:52:25.427Z,96872.47
2022-10-15T14:55:28.721Z,96890.59
2022-10-15T14:58:30.256Z,96871.53
2022-10-15T15:01:33.928Z,96869.47
2022-10-15T15:04:39.773Z,96846.03
2022-10-15T15:07:41.312Z,96840.41
2022-10-15T15:10:43.767Z,96847.88
2022-10-15T15:13:45.824Z,96875.53
2022-10-15T15:16:47.378Z,96866.84
2022-10-15T15:19:49.862Z,96854.81
2022-10-15T15:22:52.193Z,96844.09
2022-10-15T15:25:54.240Z,96833.44
2022-10-15T15:28:56.167Z,96838.50
2022-10-15T15:31:57.703Z,96829.97
2022-10-15T15:34:59.237Z,96806.50
2022-10-15T15:38:00.789Z,96814.09
2022-10-15T15:41:04.032Z,96798.59
2022-10-15T15:44:07.439Z,96812.91
2022-10-15T15:47:09.178Z,96811.00
2022-10-15T15:50:10.738Z,96797.38
2022-10-15T15:53:12.437Z,96804.56
2022-10-15T15:56:14.075Z,96801.59
2022-10-15T15:59:17.077Z,96800.38
2022-10-15T16:02:19.473Z,96804.03
2022-10-15T16:05:21.191Z,96804.81
2022-10-15T16:08:22.730Z,96804.56
2022-10-15T16:11:24.292Z,96798.94
2022-10-15T16:14:25.816Z,96799.88
2022-10-15T16:17:27.751Z,96806.28
2022-10-15T16:20:29.425Z,96802.34
2022-10-15T16:23:31.062Z,96790.19
2022-10-15T16:26:33.032Z,96797.47
2022-10-15T16:29:57.238Z,96802.09
2022-10-15T16:32:58.852Z,96791.78
2022-10-15T16:36:00.501Z,96815.88
2022-10-15T16:39:02.201Z,96815.13
2022-10-15T16:42:05.072Z,96819.31
2022-10-15T16:45:06.933Z,96825.63
2022-10-15T16:48:08.567Z,96829.59
2022-10-15T16:51:10.266Z,96842.09
2022-10-15T16:54:12.861Z,96844.00
2022-10-15T16:57:14.437Z,96834.44
2022-10-15T17:00:16.002Z,96839.44
2022-10-15T17:03:17.538Z,96851.81
2022-10-15T17:06:21.493Z,96860.31
2022-10-15T17:09:23.783Z,96843.09
2022-10-15T17:12:25.520Z,96828.56
2022-10-15T17:15:27.476Z,96825.91
2022-10-15T17:18:29.016Z,96835.81
2022-10-15T17:21:31.433Z,96835.97
2022-10-15T17:24:33.199Z,96839.28
2022-10-15T17:27:35.738Z,96855.22
2022-10-15T17:30:37.977Z,96847.09
2022-10-15T17:33:40.137Z,96822.84
2022-10-15T17:36:45.257Z,96840.53
2022-10-15T17:39:47.026Z,96817.56
2022-10-15T17:42:48.656Z,96826.31
2022-10-15T17:45:50.230Z,96830.56
2022-10-15T17:48:52.133Z,96826.06
2022-10-15T17:51:54.593Z,96825.28
2022-10-15T17:54:56.195Z,96816.56
2022-10-15T17:58:00.891Z,96811.22
2022-10-15T18:01:02.568Z,96817.31
2022-10-15T18:04:05.889Z,96834.22
2022-10-15T18:07:07.756Z,96835.00
2022-10-15T18:10:11.458Z,96827.97
2022-10-15T18:13:13.496Z,96822.38
2022-10-15T18:16:18.237Z,96836.13
2022-10-15T18:19:19.754Z,96832.72
2022-10-15T18:22:21.301Z,96822.28
2022-10-15T18:25:22.962Z,96830.56
2022-10-15T18:28:24.513Z,96831.50
2022-10-15T18:31:26.282Z,96809.47
2022-10-15T18:34:27.966Z,96806.22
2022-10-15T18:37:29.495Z,96812.16
2022-10-15T18:40:40.932Z,96825.75
2022-10-15T18:43:43.053Z,96812.00
2022-10-15T18:46:45.513Z,96824.81
2022-10-15T18:49:47.161Z,96809.53
2022-10-15T18:52:48.933Z,96798.28
2022-10-15T18:55:50.537Z,96810.78
2022-10-15T18:58:55.012Z,96823.91
2022-10-15T19:01:56.545Z,96821.25
2022-10-15T19:04:58.125Z,96812.19
2022-10-15T19:07:59.681Z,96831.09
2022-10-15T19:11:08.570Z,96821.41
2022-10-15T19:14:10.334Z,96826.41
2022-10-15T19:17:12.835Z,96824.56
2022-10-15T19:20:14.369Z,96816.13
2022-10-15T19:23:15.965Z,96821.41
2022-10-15T19:26:17.633Z,96812.19
2022-10-15T19:29:19.601Z,96806.75
2022-10-15T19:32:22.927Z,96792.84
2022-10-15T19:35:24.469Z,96788.66
2022-10-15T19:38:27.841Z,96779.28
2022-10-15T19:41:29.371Z,96788.03
2022-10-15T19:44:30.878Z,96788.47
2022-10-15T19:47:32.368Z,96774.59
2022-10-15T19:50:35.832Z,96758.50
2022-10-15T19:53:43.465Z,96766.78
2022-10-15T19:56:45.053Z,96760.53
2022-10-15T19:59:46.633Z,96751.47
2022-10-15T20:02:48.161Z,96758.81
2022-10-15T20:05:49.837Z,96756.13
2022-10-15T20:08:51.609Z,96755.94
2022-10-15T20:11:53.129Z,96747.22
2022-10-15T20:14:54.607Z,96754.88
2022-10-15T20:17:56.086Z,96770.69
2022-10-15T20:20:57.764Z,96784.41
2022-10-15T20:23:59.676Z,96772.38
2022-10-15T20:27:01.156Z,96770.31
2022-10-15T20:30:02.862Z,96764.66
2022-10-15T20:33:04.667Z,96780.13
2022-10-15T20:36:07.460Z,96778.38
2022-10-15T20:39:09.004Z,96792.13
2022-10-15T20:42:10.503Z,96811.44
2022-10-15T20:45:14.620Z,96814.88
2022-10-15T20:48:20.395Z,96818.00
2022-10-15T20:51:24.717Z,96816.41
2022-10-15T20:54:29.230Z,96839.69
2022-10-15T20:57:30.969Z,96839.53
2022-10-15T21:00:32.522Z,96828.41
2022-10-15T21:03:34.309Z,96828.13
2022-10-15T21:06:35.877Z,96807.66
2022-10-15T21:09:37.483Z,96794.22
2022-10-15T21:12:39.133Z,96807.31
2022-10-15T21:15:40.686Z,96804.22
2022-10-15T21:18:42.707Z,96801.41
2022-10-15T21:21:44.489Z,96796.88
2022-10-15T21:24:46.069Z,96785.31
2022-10-15T21:27:47.605Z,96764.09
2022-10-15T21:30:49.398Z,96761.91
2022-10-15T21:33:51.278Z,96753.66
2022-10-15T21:36:54.559Z,96746.78
2022-10-15T21:39:56.128Z,96737.56
2022-10-15T21:42:58.884Z,96741.47
2022-10-15T21:46:04.298Z,96734.00
2022-10-15T21:49:08.431Z,96717.44
2022-10-15T21:52:10.573Z,96730.22
2022-10-15T21:55:12.449Z,96729.44
2022-10-15T21:58:14.165Z,96730.81
2022-10-15T22:01:21.972Z,96754.53
2022-10-15T22:04:23.585Z,96750.13
2022-10-15T22:07:25.378Z,96778.25
2022-10-15T22:10:27.193Z,96753.09
2022-10-15T22:13:28.877Z,96767.31
2022-10-15T22:16:30.897Z,96769.03
2022-10-15T22:19:32.452Z,96782.63
2022-10-15T22:22:34.002Z,96793.91
2022-10-15T22:25:35.561Z,96777.38
2022-10-15T22:28:37.233Z,96759.13
2022-10-15T22:31:38.765Z,96736.03
2022-10-15T22:34:40.325Z,96734.13
2022-10-15T22:37:41.968Z,96753.31
2022-10-15T22:40:43.524Z,96749.25
2022-10-15T22:43:45.182Z,96751.78
2022-10-15T22:46:49.124Z,96781.13
2022-10-15T22:49:50.781Z,96761.16
2022-10-15T22:52:52.405Z,96754.91
2022-10-15T22:55:57.544Z,96759.59
2022-10-15T22:58:59.320Z,96759.94
2022-10-15T23:02:00.938Z,96766.63
2022-10-15T23:05:02.593Z,96761.16
2022-10-15T23:08:04.248Z,96750.41
2022-10-15T23:11:09.636Z,96754.94
2022-10-15T23:14:12.460Z,96756.63
2022-10-15T23:17:14.162Z,96758.34
2022-10-15T23:20:15.762Z,96750.56
2022-10-15T23:23:17.354Z,96778.38
2022-10-15T23:26:18.904Z,96762.91
2022-10-15T23:29:21.534Z,96737.94
2022-10-15T23:32:23.112Z,96746.69
2022-10-15T23:35:24.728Z,96750.13
2022-10-15T23:38:26.405Z,96748.91
2022-10-15T23:41:28.666Z,96754.50
2022-10-15T23:44:30.227Z,96760.88
2022-10-15T23:47:31.979Z,96749.34
2022-10-15T23:50:34.342Z,96756.69
2022-10-15T23:53:35.992Z,96763.72
2022-10-15T23:56:37.564Z,96762.16
2022-10-15T23:59:39.089Z,96766.19
